sensor_id;sensor_type;location;lat;lon;timestamp;temperature;humidity
21540;DHT22;10931;52.164;5.518;2023-11-21T00:00:48;17.00;80.60
21540;DHT22;10931;52.164;5.518;2023-11-21T00:03:22;17.00;80.60
21540;DHT22;10931;52.164;5.518;2023-11-21T00:05:54;17.00;80.60
21540;DHT22;10931;52.164;5.518;2023-11-21T00:08:22;16.90;81.40
21540;DHT22;10931;52.164;5.518;2023-11-21T00:10:55;16.90;80.60
21540;DHT22;10931;52.164;5.518;2023-11-21T00:13:24;16.90;80.60
21540;DHT22;10931;52.164;5.518;2023-11-21T00:15:50;16.90;80.60
21540;DHT22;10931;52.164;5.518;2023-11-21T00:18:22;16.90;80.60
21540;DHT22;10931;52.164;5.518;2023-11-21T00:20:57;16.90;80.60
21540;DHT22;10931;52.164;5.518;2023-11-21T00:23:28;16.90;80.60
21540;DHT22;10931;52.164;5.518;2023-11-21T00:25:54;16.90;80.60
21540;DHT22;10931;52.164;5.518;2023-11-21T00:28:28;16.90;80.60
21540;DHT22;10931;52.164;5.518;2023-11-21T00:31:19;16.90;80.60
21540;DHT22;10931;52.164;5.518;2023-11-21T00:33:50;16.90;80.60
21540;DHT22;10931;52.164;5.518;2023-11-21T00:36:16;16.90;80.60
21540;DHT22;10931;52.164;5.518;2023-11-21T00:38:46;16.90;80.60
21540;DHT22;10931;52.164;5.518;2023-11-21T00:41:14;16.90;80.60
21540;DHT22;10931;52.164;5.518;2023-11-21T00:43:45;16.80;80.50
21540;DHT22;10931;52.164;5.518;2023-11-21T00:46:11;16.90;80.60
21540;DHT22;10931;52.164;5.518;2023-11-21T00:48:39;16.90;80.60
21540;DHT22;10931;52.164;5.518;2023-11-21T00:51:07;16.90;80.60
21540;DHT22;10931;52.164;5.518;2023-11-21T00:53:36;16.90;80.60
21540;DHT22;10931;52.164;5.518;2023-11-21T00:56:01;16.80;80.50
21540;DHT22;10931;52.164;5.518;2023-11-21T00:58:28;16.80;80.50
21540;DHT22;10931;52.164;5.518;2023-11-21T01:01:09;16.80;80.50
21540;DHT22;10931;52.164;5.518;2023-11-21T01:03:41;16.90;80.60
21540;DHT22;10931;52.164;5.518;2023-11-21T01:06:07;16.80;80.50
21540;DHT22;10931;52.164;5.518;2023-11-21T01:08:44;16.80;80.40
21540;DHT22;10931;52.164;5.518;2023-11-21T01:11:11;16.80;80.50
21540;DHT22;10931;52.164;5.518;2023-11-21T01:13:41;16.80;80.50
21540;DHT22;10931;52.164;5.518;2023-11-21T01:16:22;16.80;80.50
21540;DHT22;10931;52.164;5.518;2023-11-21T01:18:48;16.80;80.50
21540;DHT22;10931;52.164;5.518;2023-11-21T01:21:14;16.80;80.40
21540;DHT22;10931;52.164;5.518;2023-11-21T01:23:39;16.80;80.40
21540;DHT22;10931;52.164;5.518;2023-11-21T01:26:20;16.80;80.40
21540;DHT22;10931;52.164;5.518;2023-11-21T01:28:55;16.80;80.40
21540;DHT22;10931;52.164;5.518;2023-11-21T01:31:33;16.80;80.40
21540;DHT22;10931;52.164;5.518;2023-11-21T01:34:04;16.80;80.40
21540;DHT22;10931;52.164;5.518;2023-11-21T01:36:31;16.80;80.40
21540;DHT22;10931;52.164;5.518;2023-11-21T01:39:00;16.80;80.40
21540;DHT22;10931;52.164;5.518;2023-11-21T01:41:30;16.70;80.40
21540;DHT22;10931;52.164;5.518;2023-11-21T01:47:08;16.80;80.50
21540;DHT22;10931;52.164;5.518;2023-11-21T01:49:35;16.80;80.40
21540;DHT22;10931;52.164;5.518;2023-11-21T01:52:08;16.70;80.40
21540;DHT22;10931;52.164;5.518;2023-11-21T01:54:36;16.70;80.40
21540;DHT22;10931;52.164;5.518;2023-11-21T01:57:07;16.70;80.40
21540;DHT22;10931;52.164;5.518;2023-11-21T01:59:41;16.80;80.50
21540;DHT22;10931;52.164;5.518;2023-11-21T02:02:15;16.70;80.40
21540;DHT22;10931;52.164;5.518;2023-11-21T02:04:50;16.70;80.40
21540;DHT22;10931;52.164;5.518;2023-11-21T02:07:16;16.70;80.40
21540;DHT22;10931;52.164;5.518;2023-11-21T02:09:44;16.70;80.40
21540;DHT22;10931;52.164;5.518;2023-11-21T02:12:13;16.70;80.40
21540;DHT22;10931;52.164;5.518;2023-11-21T02:14:38;16.70;80.40
21540;DHT22;10931;52.164;5.518;2023-11-21T02:17:04;16.70;80.40
21540;DHT22;10931;52.164;5.518;2023-11-21T02:19:30;16.70;80.40
21540;DHT22;10931;52.164;5.518;2023-11-21T02:22:01;16.70;80.40
21540;DHT22;10931;52.164;5.518;2023-11-21T02:24:32;16.70;80.40
21540;DHT22;10931;52.164;5.518;2023-11-21T02:26:58;16.70;80.40
21540;DHT22;10931;52.164;5.518;2023-11-21T02:29:24;16.70;80.40
21540;DHT22;10931;52.164;5.518;2023-11-21T02:31:58;16.70;80.40
21540;DHT22;10931;52.164;5.518;2023-11-21T02:34:47;16.70;80.40
21540;DHT22;10931;52.164;5.518;2023-11-21T02:37:13;16.70;80.40
21540;DHT22;10931;52.164;5.518;2023-11-21T02:39:38;16.70;80.40
21540;DHT22;10931;52.164;5.518;2023-11-21T02:42:06;16.70;80.40
21540;DHT22;10931;52.164;5.518;2023-11-21T02:44:38;16.60;80.30
21540;DHT22;10931;52.164;5.518;2023-11-21T02:47:03;16.70;80.40
21540;DHT22;10931;52.164;5.518;2023-11-21T02:49:32;16.60;80.30
21540;DHT22;10931;52.164;5.518;2023-11-21T02:52:01;16.60;80.30
21540;DHT22;10931;52.164;5.518;2023-11-21T02:54:27;16.60;80.30
21540;DHT22;10931;52.164;5.518;2023-11-21T02:57:02;16.60;80.30
21540;DHT22;10931;52.164;5.518;2023-11-21T02:59:30;16.60;80.30
21540;DHT22;10931;52.164;5.518;2023-11-21T03:02:01;16.60;81.10
21540;DHT22;10931;52.164;5.518;2023-11-21T03:04:27;16.60;80.30
21540;DHT22;10931;52.164;5.518;2023-11-21T03:07:01;16.60;80.30
21540;DHT22;10931;52.164;5.518;2023-11-21T03:09:27;16.60;80.30
21540;DHT22;10931;52.164;5.518;2023-11-21T03:11:55;16.60;80.30
21540;DHT22;10931;52.164;5.518;2023-11-21T03:14:21;16.60;80.30
21540;DHT22;10931;52.164;5.518;2023-11-21T03:17:16;16.60;80.30
21540;DHT22;10931;52.164;5.518;2023-11-21T03:19:44;16.60;80.30
21540;DHT22;10931;52.164;5.518;2023-11-21T03:22:19;16.60;80.30
21540;DHT22;10931;52.164;5.518;2023-11-21T03:24:48;16.60;80.30
21540;DHT22;10931;52.164;5.518;2023-11-21T03:27:17;16.60;80.30
21540;DHT22;10931;52.164;5.518;2023-11-21T03:29:43;16.60;80.30
21540;DHT22;10931;52.164;5.518;2023-11-21T03:32:12;16.60;80.30
21540;DHT22;10931;52.164;5.518;2023-11-21T03:34:56;16.60;80.30
21540;DHT22;10931;52.164;5.518;2023-11-21T03:37:25;16.60;80.30
21540;DHT22;10931;52.164;5.518;2023-11-21T03:39:56;16.60;80.30
21540;DHT22;10931;52.164;5.518;2023-11-21T03:42:25;16.60;80.30
21540;DHT22;10931;52.164;5.518;2023-11-21T03:44:58;16.50;80.30
21540;DHT22;10931;52.164;5.518;2023-11-21T03:47:27;16.50;80.20
21540;DHT22;10931;52.164;5.518;2023-11-21T03:49:53;16.60;80.30
21540;DHT22;10931;52.164;5.518;2023-11-21T03:52:31;16.60;80.30
21540;DHT22;10931;52.164;5.518;2023-11-21T03:54:56;16.50;80.30
21540;DHT22;10931;52.164;5.518;2023-11-21T03:57:26;16.50;80.30
21540;DHT22;10931;52.164;5.518;2023-11-21T04:00:02;16.60;80.30
21540;DHT22;10931;52.164;5.518;2023-11-21T04:02:30;16.50;80.20
21540;DHT22;10931;52.164;5.518;2023-11-21T04:04:57;16.50;80.20
21540;DHT22;10931;52.164;5.518;2023-11-21T04:07:30;16.50;80.20
21540;DHT22;10931;52.164;5.518;2023-11-21T04:09:56;16.50;80.30
21540;DHT22;10931;52.164;5.518;2023-11-21T04:12:22;16.50;80.20
21540;DHT22;10931;52.164;5.518;2023-11-21T04:14:50;16.50;80.20
21540;DHT22;10931;52.164;5.518;2023-11-21T04:17:22;16.50;80.20
21540;DHT22;10931;52.164;5.518;2023-11-21T04:19:50;16.50;80.20
21540;DHT22;10931;52.164;5.518;2023-11-21T04:22:16;16.50;80.20
21540;DHT22;10931;52.164;5.518;2023-11-21T04:24:46;16.50;80.20
21540;DHT22;10931;52.164;5.518;2023-11-21T04:27:30;16.50;80.20
21540;DHT22;10931;52.164;5.518;2023-11-21T04:29:56;16.50;80.20
21540;DHT22;10931;52.164;5.518;2023-11-21T04:32:29;16.50;80.20
21540;DHT22;10931;52.164;5.518;2023-11-21T04:34:56;16.50;80.20
21540;DHT22;10931;52.164;5.518;2023-11-21T04:37:28;16.50;80.20
21540;DHT22;10931;52.164;5.518;2023-11-21T04:39:54;16.50;80.20
21540;DHT22;10931;52.164;5.518;2023-11-21T04:42:19;16.50;80.20
21540;DHT22;10931;52.164;5.518;2023-11-21T04:44:51;16.50;80.20
21540;DHT22;10931;52.164;5.518;2023-11-21T04:47:18;16.50;80.20
21540;DHT22;10931;52.164;5.518;2023-11-21T04:49:46;16.50;80.20
21540;DHT22;10931;52.164;5.518;2023-11-21T04:52:15;16.50;80.20
21540;DHT22;10931;52.164;5.518;2023-11-21T04:54:44;16.50;80.20
21540;DHT22;10931;52.164;5.518;2023-11-21T04:57:13;16.50;80.20
21540;DHT22;10931;52.164;5.518;2023-11-21T04:59:43;16.50;80.20
21540;DHT22;10931;52.164;5.518;2023-11-21T05:02:09;16.40;80.90
21540;DHT22;10931;52.164;5.518;2023-11-21T05:04:37;16.50;80.20
21540;DHT22;10931;52.164;5.518;2023-11-21T05:07:10;16.50;80.20
21540;DHT22;10931;52.164;5.518;2023-11-21T05:09:36;16.40;80.10
21540;DHT22;10931;52.164;5.518;2023-11-21T05:12:04;16.40;80.10
21540;DHT22;10931;52.164;5.518;2023-11-21T05:14:40;16.40;80.10
21540;DHT22;10931;52.164;5.518;2023-11-21T05:17:09;16.40;80.10
21540;DHT22;10931;52.164;5.518;2023-11-21T05:22:45;16.40;80.10
21540;DHT22;10931;52.164;5.518;2023-11-21T05:25:16;16.40;80.10
21540;DHT22;10931;52.164;5.518;2023-11-21T05:27:48;16.40;80.10
21540;DHT22;10931;52.164;5.518;2023-11-21T05:57:19;16.40;80.10
21540;DHT22;10931;52.164;5.518;2023-11-21T06:06:17;16.40;80.10
21540;DHT22;10931;52.164;5.518;2023-11-21T06:08:46;16.40;80.10
21540;DHT22;10931;52.164;5.518;2023-11-21T06:11:36;16.40;80.10
21540;DHT22;10931;52.164;5.518;2023-11-21T06:14:11;16.40;80.10
21540;DHT22;10931;52.164;5.518;2023-11-21T06:17:23;16.40;80.10
21540;DHT22;10931;52.164;5.518;2023-11-21T06:20:10;16.40;80.10
21540;DHT22;10931;52.164;5.518;2023-11-21T06:28:11;16.40;80.10
21540;DHT22;10931;52.164;5.518;2023-11-21T06:34:06;16.30;80.10
21540;DHT22;10931;52.164;5.518;2023-11-21T06:37:11;16.40;80.10
21540;DHT22;10931;52.164;5.518;2023-11-21T06:39:56;16.30;80.10
21540;DHT22;10931;52.164;5.518;2023-11-21T06:42:44;16.30;80.10
21540;DHT22;10931;52.164;5.518;2023-11-21T06:45:21;16.30;80.00
21540;DHT22;10931;52.164;5.518;2023-11-21T06:48:03;16.30;80.10
21540;DHT22;10931;52.164;5.518;2023-11-21T06:50:31;16.30;80.10
21540;DHT22;10931;52.164;5.518;2023-11-21T06:53:00;16.30;80.10
21540;DHT22;10931;52.164;5.518;2023-11-21T06:58:37;16.30;80.10
21540;DHT22;10931;52.164;5.518;2023-11-21T07:17:56;16.30;80.10
21540;DHT22;10931;52.164;5.518;2023-11-21T07:20:36;16.30;80.10
21540;DHT22;10931;52.164;5.518;2023-11-21T07:23:09;16.30;80.10
21540;DHT22;10931;52.164;5.518;2023-11-21T07:26:02;16.30;80.10
21540;DHT22;10931;52.164;5.518;2023-11-21T07:28:43;16.30;80.10
21540;DHT22;10931;52.164;5.518;2023-11-21T07:31:53;16.30;80.10
21540;DHT22;10931;52.164;5.518;2023-11-21T07:34:22;16.30;80.10
21540;DHT22;10931;52.164;5.518;2023-11-21T07:36:50;16.30;80.10
21540;DHT22;10931;52.164;5.518;2023-11-21T07:39:53;16.30;80.10
21540;DHT22;10931;52.164;5.518;2023-11-21T07:42:42;16.30;80.10
21540;DHT22;10931;52.164;5.518;2023-11-21T07:45:23;16.30;80.10
21540;DHT22;10931;52.164;5.518;2023-11-21T07:47:51;16.30;80.10
21540;DHT22;10931;52.164;5.518;2023-11-21T07:50:19;16.20;80.10
21540;DHT22;10931;52.164;5.518;2023-11-21T07:52:54;16.30;80.10
21540;DHT22;10931;52.164;5.518;2023-11-21T07:55:22;16.30;80.10
21540;DHT22;10931;52.164;5.518;2023-11-21T07:58:12;16.30;80.10
21540;DHT22;10931;52.164;5.518;2023-11-21T08:00:48;16.30;80.00
21540;DHT22;10931;52.164;5.518;2023-11-21T08:03:24;16.30;80.10
21540;DHT22;10931;52.164;5.518;2023-11-21T08:05:53;16.30;80.10
21540;DHT22;10931;52.164;5.518;2023-11-21T08:08:27;16.30;80.10
21540;DHT22;10931;52.164;5.518;2023-11-21T08:11:16;16.30;80.10
21540;DHT22;10931;52.164;5.518;2023-11-21T08:13:46;16.30;80.10
21540;DHT22;10931;52.164;5.518;2023-11-21T08:16:18;16.30;80.10
21540;DHT22;10931;52.164;5.518;2023-11-21T08:19:02;16.30;80.10
21540;DHT22;10931;52.164;5.518;2023-11-21T08:21:31;16.30;80.10
21540;DHT22;10931;52.164;5.518;2023-11-21T08:24:16;16.30;80.10
21540;DHT22;10931;52.164;5.518;2023-11-21T08:27:02;16.20;80.10
21540;DHT22;10931;52.164;5.518;2023-11-21T08:29:29;16.30;80.10
21540;DHT22;10931;52.164;5.518;2023-11-21T08:32:15;16.30;80.10
21540;DHT22;10931;52.164;5.518;2023-11-21T08:35:16;16.30;80.10
21540;DHT22;10931;52.164;5.518;2023-11-21T08:37:46;16.20;80.10
21540;DHT22;10931;52.164;5.518;2023-11-21T08:40:16;16.30;80.10
21540;DHT22;10931;52.164;5.518;2023-11-21T08:42:55;16.30;80.10
21540;DHT22;10931;52.164;5.518;2023-11-21T08:45:47;16.30;80.10
21540;DHT22;10931;52.164;5.518;2023-11-21T08:48:25;16.30;80.10
21540;DHT22;10931;52.164;5.518;2023-11-21T08:50:53;16.30;80.10
21540;DHT22;10931;52.164;5.518;2023-11-21T08:53:29;16.30;80.10
21540;DHT22;10931;52.164;5.518;2023-11-21T08:55:56;16.30;80.10
21540;DHT22;10931;52.164;5.518;2023-11-21T08:58:50;16.30;80.10
21540;DHT22;10931;52.164;5.518;2023-11-21T09:01:24;16.30;80.20
21540;DHT22;10931;52.164;5.518;2023-11-21T09:03:53;16.30;80.10
21540;DHT22;10931;52.164;5.518;2023-11-21T09:06:27;16.30;80.20
21540;DHT22;10931;52.164;5.518;2023-11-21T09:09:27;16.30;80.20
21540;DHT22;10931;52.164;5.518;2023-11-21T09:12:27;16.30;80.20
21540;DHT22;10931;52.164;5.518;2023-11-21T09:14:55;16.30;80.30
21540;DHT22;10931;52.164;5.518;2023-11-21T09:17:46;16.30;80.20
21540;DHT22;10931;52.164;5.518;2023-11-21T09:23:24;16.30;80.30
21540;DHT22;10931;52.164;5.518;2023-11-21T09:25:58;16.30;80.30
21540;DHT22;10931;52.164;5.518;2023-11-21T09:28:50;16.30;80.30
21540;DHT22;10931;52.164;5.518;2023-11-21T09:31:22;16.30;80.30
21540;DHT22;10931;52.164;5.518;2023-11-21T09:34:21;16.30;80.30
21540;DHT22;10931;52.164;5.518;2023-11-21T09:55:30;16.30;80.40
21540;DHT22;10931;52.164;5.518;2023-11-21T10:01:36;16.30;80.40
21540;DHT22;10931;52.164;5.518;2023-11-21T10:04:16;16.30;80.40
21540;DHT22;10931;52.164;5.518;2023-11-21T10:06:44;16.30;80.40
21540;DHT22;10931;52.164;5.518;2023-11-21T10:09:23;16.30;80.40
21540;DHT22;10931;52.164;5.518;2023-11-21T10:11:56;16.30;80.40
21540;DHT22;10931;52.164;5.518;2023-11-21T10:14:42;16.40;80.50
21540;DHT22;10931;52.164;5.518;2023-11-21T10:17:20;16.30;80.40
21540;DHT22;10931;52.164;5.518;2023-11-21T10:19:50;16.30;80.40
21540;DHT22;10931;52.164;5.518;2023-11-21T10:22:15;16.30;80.40
21540;DHT22;10931;52.164;5.518;2023-11-21T10:24:50;16.40;80.50
21540;DHT22;10931;52.164;5.518;2023-11-21T10:27:38;16.30;80.40
21540;DHT22;10931;52.164;5.518;2023-11-21T10:30:06;16.30;80.40
21540;DHT22;10931;52.164;5.518;2023-11-21T10:32:43;16.40;80.50
21540;DHT22;10931;52.164;5.518;2023-11-21T10:35:28;16.40;80.60
21540;DHT22;10931;52.164;5.518;2023-11-21T10:38:26;16.40;80.50
21540;DHT22;10931;52.164;5.518;2023-11-21T10:41:05;16.40;80.50
21540;DHT22;10931;52.164;5.518;2023-11-21T10:43:44;16.40;80.50
21540;DHT22;10931;52.164;5.518;2023-11-21T10:46:35;16.40;80.50
21540;DHT22;10931;52.164;5.518;2023-11-21T10:49:07;16.40;80.50
21540;DHT22;10931;52.164;5.518;2023-11-21T10:51:54;16.40;80.50
21540;DHT22;10931;52.164;5.518;2023-11-21T10:54:22;16.40;80.60
21540;DHT22;10931;52.164;5.518;2023-11-21T10:56:58;16.40;80.60
21540;DHT22;10931;52.164;5.518;2023-11-21T10:59:36;16.40;80.60
21540;DHT22;10931;52.164;5.518;2023-11-21T11:02:14;16.40;80.60
21540;DHT22;10931;52.164;5.518;2023-11-21T11:04:58;16.40;80.60
21540;DHT22;10931;52.164;5.518;2023-11-21T11:07:27;16.40;80.60
21540;DHT22;10931;52.164;5.518;2023-11-21T11:09:55;16.40;80.60
21540;DHT22;10931;52.164;5.518;2023-11-21T11:12:31;16.40;80.60
21540;DHT22;10931;52.164;5.518;2023-11-21T11:15:01;16.40;80.60
21540;DHT22;10931;52.164;5.518;2023-11-21T11:17:31;16.40;80.60
21540;DHT22;10931;52.164;5.518;2023-11-21T11:28:51;16.40;80.60
21540;DHT22;10931;52.164;5.518;2023-11-21T11:31:39;16.40;80.60
21540;DHT22;10931;52.164;5.518;2023-11-21T11:34:32;16.40;80.60
21540;DHT22;10931;52.164;5.518;2023-11-21T11:37:07;16.40;80.60
21540;DHT22;10931;52.164;5.518;2023-11-21T11:39:41;16.40;80.60
21540;DHT22;10931;52.164;5.518;2023-11-21T11:42:15;16.40;80.60
21540;DHT22;10931;52.164;5.518;2023-11-21T11:44:52;16.40;80.60
21540;DHT22;10931;52.164;5.518;2023-11-21T11:47:26;16.50;80.70
21540;DHT22;10931;52.164;5.518;2023-11-21T11:50:01;16.50;80.60
21540;DHT22;10931;52.164;5.518;2023-11-21T11:52:47;16.40;80.60
21540;DHT22;10931;52.164;5.518;2023-11-21T11:55:18;16.50;80.70
21540;DHT22;10931;52.164;5.518;2023-11-21T11:58:00;16.50;80.70
21540;DHT22;10931;52.164;5.518;2023-11-21T12:00:42;16.50;80.70
21540;DHT22;10931;52.164;5.518;2023-11-21T12:03:34;16.50;80.70
21540;DHT22;10931;52.164;5.518;2023-11-21T12:06:03;16.50;80.70
21540;DHT22;10931;52.164;5.518;2023-11-21T12:11:52;16.50;80.70
21540;DHT22;10931;52.164;5.518;2023-11-21T12:14:17;16.50;80.70
21540;DHT22;10931;52.164;5.518;2023-11-21T12:16:48;16.50;80.70
21540;DHT22;10931;52.164;5.518;2023-11-21T12:19:27;16.50;80.70
21540;DHT22;10931;52.164;5.518;2023-11-21T12:21:55;16.50;80.70
21540;DHT22;10931;52.164;5.518;2023-11-21T12:24:21;16.50;80.70
21540;DHT22;10931;52.164;5.518;2023-11-21T12:26:48;16.50;81.50
21540;DHT22;10931;52.164;5.518;2023-11-21T12:29:19;16.50;80.70
21540;DHT22;10931;52.164;5.518;2023-11-21T12:31:48;16.50;80.70
21540;DHT22;10931;52.164;5.518;2023-11-21T12:34:15;16.50;80.70
21540;DHT22;10931;52.164;5.518;2023-11-21T12:36:46;16.50;80.70
21540;DHT22;10931;52.164;5.518;2023-11-21T12:39:14;16.50;80.70
21540;DHT22;10931;52.164;5.518;2023-11-21T12:41:48;16.50;80.70
21540;DHT22;10931;52.164;5.518;2023-11-21T12:44:34;16.50;80.70
21540;DHT22;10931;52.164;5.518;2023-11-21T12:47:03;16.50;80.70
21540;DHT22;10931;52.164;5.518;2023-11-21T12:49:35;16.60;80.70
21540;DHT22;10931;52.164;5.518;2023-11-21T12:52:14;16.50;80.70
21540;DHT22;10931;52.164;5.518;2023-11-21T12:54:40;16.50;80.70
21540;DHT22;10931;52.164;5.518;2023-11-21T12:57:06;16.60;80.70
21540;DHT22;10931;52.164;5.518;2023-11-21T12:59:45;16.50;80.70
21540;DHT22;10931;52.164;5.518;2023-11-21T13:02:24;16.60;80.70
21540;DHT22;10931;52.164;5.518;2023-11-21T13:04:57;16.60;80.70
21540;DHT22;10931;52.164;5.518;2023-11-21T13:07:24;16.60;80.80
21540;DHT22;10931;52.164;5.518;2023-11-21T13:09:57;16.60;80.70
21540;DHT22;10931;52.164;5.518;2023-11-21T13:12:36;16.60;80.80
21540;DHT22;10931;52.164;5.518;2023-11-21T13:17:55;16.60;80.70
21540;DHT22;10931;52.164;5.518;2023-11-21T13:20:23;16.60;80.70
21540;DHT22;10931;52.164;5.518;2023-11-21T13:22:56;16.60;80.80
21540;DHT22;10931;52.164;5.518;2023-11-21T13:25:24;16.60;80.80
21540;DHT22;10931;52.164;5.518;2023-11-21T13:27:58;16.60;80.70
21540;DHT22;10931;52.164;5.518;2023-11-21T13:30:39;16.60;80.70
21540;DHT22;10931;52.164;5.518;2023-11-21T13:33:16;16.60;80.80
21540;DHT22;10931;52.164;5.518;2023-11-21T13:36:03;16.60;80.80
21540;DHT22;10931;52.164;5.518;2023-11-21T13:38:37;16.60;80.80
21540;DHT22;10931;52.164;5.518;2023-11-21T13:41:09;16.60;80.80
21540;DHT22;10931;52.164;5.518;2023-11-21T13:43:40;16.60;80.80
21540;DHT22;10931;52.164;5.518;2023-11-21T13:46:11;16.60;80.80
21540;DHT22;10931;52.164;5.518;2023-11-21T13:48:42;16.60;80.80
21540;DHT22;10931;52.164;5.518;2023-11-21T13:51:30;16.60;80.70
21540;DHT22;10931;52.164;5.518;2023-11-21T13:54:08;16.70;80.80
21540;DHT22;10931;52.164;5.518;2023-11-21T13:56:36;16.60;80.70
21540;DHT22;10931;52.164;5.518;2023-11-21T13:59:13;16.60;80.70
21540;DHT22;10931;52.164;5.518;2023-11-21T14:01:48;16.60;80.70
21540;DHT22;10931;52.164;5.518;2023-11-21T14:04:38;16.60;80.80
21540;DHT22;10931;52.164;5.518;2023-11-21T14:07:21;16.60;80.70
21540;DHT22;10931;52.164;5.518;2023-11-21T14:10:03;16.70;80.80
21540;DHT22;10931;52.164;5.518;2023-11-21T14:12:30;16.70;80.80
21540;DHT22;10931;52.164;5.518;2023-11-21T14:14:59;16.70;80.90
21540;DHT22;10931;52.164;5.518;2023-11-21T14:17:32;16.70;80.80
21540;DHT22;10931;52.164;5.518;2023-11-21T14:19:59;16.70;80.80
21540;DHT22;10931;52.164;5.518;2023-11-21T14:22:29;16.70;80.80
21540;DHT22;10931;52.164;5.518;2023-11-21T14:24:56;16.70;80.80
21540;DHT22;10931;52.164;5.518;2023-11-21T14:27:29;16.60;80.70
21540;DHT22;10931;52.164;5.518;2023-11-21T14:29:58;16.70;80.80
21540;DHT22;10931;52.164;5.518;2023-11-21T14:32:33;16.70;80.80
21540;DHT22;10931;52.164;5.518;2023-11-21T14:35:05;16.70;80.80
21540;DHT22;10931;52.164;5.518;2023-11-21T14:37:34;16.70;80.80
21540;DHT22;10931;52.164;5.518;2023-11-21T14:40:08;16.70;80.80
21540;DHT22;10931;52.164;5.518;2023-11-21T14:42:42;16.70;80.80
21540;DHT22;10931;52.164;5.518;2023-11-21T14:45:13;16.70;80.80
21540;DHT22;10931;52.164;5.518;2023-11-21T14:47:44;16.70;80.80
21540;DHT22;10931;52.164;5.518;2023-11-21T14:50:22;16.70;80.80
21540;DHT22;10931;52.164;5.518;2023-11-21T14:53:06;16.70;80.70
21540;DHT22;10931;52.164;5.518;2023-11-21T14:55:33;16.70;80.80
21540;DHT22;10931;52.164;5.518;2023-11-21T14:58:07;16.70;80.80
21540;DHT22;10931;52.164;5.518;2023-11-21T15:00:40;16.70;80.70
21540;DHT22;10931;52.164;5.518;2023-11-21T15:03:16;16.70;80.70
21540;DHT22;10931;52.164;5.518;2023-11-21T15:06:12;16.70;80.70
21540;DHT22;10931;52.164;5.518;2023-11-21T15:08:52;16.70;80.70
21540;DHT22;10931;52.164;5.518;2023-11-21T15:11:31;16.70;80.70
21540;DHT22;10931;52.164;5.518;2023-11-21T15:13:59;16.80;80.80
21540;DHT22;10931;52.164;5.518;2023-11-21T15:16:40;16.70;80.70
21540;DHT22;10931;52.164;5.518;2023-11-21T15:19:17;16.70;80.70
21540;DHT22;10931;52.164;5.518;2023-11-21T15:21:47;16.80;80.80
21540;DHT22;10931;52.164;5.518;2023-11-21T15:24:18;16.70;80.70
21540;DHT22;10931;52.164;5.518;2023-11-21T15:27:10;16.80;80.80
21540;DHT22;10931;52.164;5.518;2023-11-21T15:33:08;16.80;80.80
21540;DHT22;10931;52.164;5.518;2023-11-21T15:35:35;16.80;80.80
21540;DHT22;10931;52.164;5.518;2023-11-21T15:38:03;16.80;80.80
21540;DHT22;10931;52.164;5.518;2023-11-21T15:40:29;16.80;80.90
21540;DHT22;10931;52.164;5.518;2023-11-21T15:42:57;16.80;80.80
21540;DHT22;10931;52.164;5.518;2023-11-21T15:45:29;16.80;80.80
21540;DHT22;10931;52.164;5.518;2023-11-21T15:47:55;16.80;80.80
21540;DHT22;10931;52.164;5.518;2023-11-21T15:50:28;16.80;80.80
21540;DHT22;10931;52.164;5.518;2023-11-21T15:53:28;16.80;80.80
21540;DHT22;10931;52.164;5.518;2023-11-21T15:56:10;16.80;80.80
21540;DHT22;10931;52.164;5.518;2023-11-21T15:58:39;16.80;80.80
21540;DHT22;10931;52.164;5.518;2023-11-21T16:01:24;16.80;80.80
21540;DHT22;10931;52.164;5.518;2023-11-21T16:03:51;16.80;80.80
21540;DHT22;10931;52.164;5.518;2023-11-21T16:06:27;16.80;80.80
21540;DHT22;10931;52.164;5.518;2023-11-21T16:09:01;16.80;80.80
21540;DHT22;10931;52.164;5.518;2023-11-21T16:11:29;16.80;80.80
21540;DHT22;10931;52.164;5.518;2023-11-21T16:13:55;16.80;80.80
21540;DHT22;10931;52.164;5.518;2023-11-21T16:16:30;16.80;80.80
21540;DHT22;10931;52.164;5.518;2023-11-21T16:18:59;16.80;80.80
21540;DHT22;10931;52.164;5.518;2023-11-21T16:24:48;16.80;80.80
21540;DHT22;10931;52.164;5.518;2023-11-21T16:27:17;16.80;80.70
21540;DHT22;10931;52.164;5.518;2023-11-21T16:29:43;16.80;80.80
21540;DHT22;10931;52.164;5.518;2023-11-21T16:32:26;16.80;80.80
21540;DHT22;10931;52.164;5.518;2023-11-21T16:35:15;16.80;80.80
21540;DHT22;10931;52.164;5.518;2023-11-21T16:37:57;16.80;80.80
21540;DHT22;10931;52.164;5.518;2023-11-21T16:40:37;16.80;80.80
21540;DHT22;10931;52.164;5.518;2023-11-21T16:43:12;16.80;80.80
21540;DHT22;10931;52.164;5.518;2023-11-21T16:45:47;16.80;80.70
21540;DHT22;10931;52.164;5.518;2023-11-21T16:48:25;16.80;80.70
21540;DHT22;10931;52.164;5.518;2023-11-21T16:50:58;16.80;80.70
21540;DHT22;10931;52.164;5.518;2023-11-21T16:53:48;16.80;80.70
21540;DHT22;10931;52.164;5.518;2023-11-21T16:59:41;16.80;80.70
21540;DHT22;10931;52.164;5.518;2023-11-21T17:05:39;16.80;80.70
21540;DHT22;10931;52.164;5.518;2023-11-21T17:08:25;16.80;80.70
21540;DHT22;10931;52.164;5.518;2023-11-21T17:11:04;16.80;80.70
21540;DHT22;10931;52.164;5.518;2023-11-21T17:13:45;16.80;80.70
21540;DHT22;10931;52.164;5.518;2023-11-21T17:16:19;16.80;80.70
21540;DHT22;10931;52.164;5.518;2023-11-21T17:18:52;16.80;80.70
21540;DHT22;10931;52.164;5.518;2023-11-21T17:21:21;16.80;80.70
21540;DHT22;10931;52.164;5.518;2023-11-21T17:23:58;16.90;80.80
21540;DHT22;10931;52.164;5.518;2023-11-21T17:26:26;16.80;80.70
21540;DHT22;10931;52.164;5.518;2023-11-21T17:29:01;16.80;80.70
21540;DHT22;10931;52.164;5.518;2023-11-21T17:31:39;16.90;80.80
21540;DHT22;10931;52.164;5.518;2023-11-21T17:34:08;16.80;80.70
21540;DHT22;10931;52.164;5.518;2023-11-21T17:36:47;16.90;80.80
21540;DHT22;10931;52.164;5.518;2023-11-21T17:39:15;16.80;80.70
21540;DHT22;10931;52.164;5.518;2023-11-21T17:41:47;16.80;80.70
21540;DHT22;10931;52.164;5.518;2023-11-21T17:44:18;16.80;80.70
21540;DHT22;10931;52.164;5.518;2023-11-21T17:46:58;16.90;80.80
21540;DHT22;10931;52.164;5.518;2023-11-21T17:49:30;16.90;80.80
21540;DHT22;10931;52.164;5.518;2023-11-21T17:52:47;16.90;80.80
21540;DHT22;10931;52.164;5.518;2023-11-21T17:55:17;16.80;80.70
21540;DHT22;10931;52.164;5.518;2023-11-21T18:00:41;16.80;80.70
21540;DHT22;10931;52.164;5.518;2023-11-21T18:03:15;16.90;80.70
21540;DHT22;10931;52.164;5.518;2023-11-21T18:05:50;16.80;80.70
21540;DHT22;10931;52.164;5.518;2023-11-21T18:08:18;16.80;80.70
21540;DHT22;10931;52.164;5.518;2023-11-21T18:14:06;16.80;80.70
21540;DHT22;10931;52.164;5.518;2023-11-21T18:16:36;16.90;80.70
21540;DHT22;10931;52.164;5.518;2023-11-21T18:19:03;16.80;80.70
21540;DHT22;10931;52.164;5.518;2023-11-21T18:21:51;16.90;80.70